sensor_id;sensor_type;location;lat;lon;timestamp;P1;durP1;ratioP1;P2;durP2;ratioP2
2766;SDS011;1391;46.742;11.636;2022-11-11T00:01:08;1.00;;;1.00;;
2766;SDS011;1391;46.742;11.636;2022-11-11T00:03:38;1.17;;;1.07;;
2766;SDS011;1391;46.742;11.636;2022-11-11T00:06:08;0.90;;;0.90;;
2766;SDS011;1391;46.742;11.636;2022-11-11T00:08:39;2.20;;;1.47;;
2766;SDS011;1391;46.742;11.636;2022-11-11T00:11:07;1.50;;;1.23;;
2766;SDS011;1391;46.742;11.636;2022-11-11T00:13:37;1.40;;;1.23;;
2766;SDS011;1391;46.742;11.636;2022-11-11T00:16:06;0.87;;;0.87;;
2766;SDS011;1391;46.742;11.636;2022-11-11T00:18:35;1.90;;;1.33;;
2766;SDS011;1391;46.742;11.636;2022-11-11T00:21:22;1.40;;;1.17;;
2766;SDS011;1391;46.742;11.636;2022-11-11T00:24:11;2.30;;;0.90;;
2766;SDS011;1391;46.742;11.636;2022-11-11T00:27:06;1.63;;;1.13;;
2766;SDS011;1391;46.742;11.636;2022-11-11T00:29:34;4.50;;;1.17;;
2766;SDS011;1391;46.742;11.636;2022-11-11T00:32:03;1.50;;;1.00;;
2766;SDS011;1391;46.742;11.636;2022-11-11T00:34:52;2.17;;;1.10;;
2766;SDS011;1391;46.742;11.636;2022-11-11T00:37:40;1.43;;;1.17;;
2766;SDS011;1391;46.742;11.636;2022-11-11T00:40:10;1.33;;;1.00;;
2766;SDS011;1391;46.742;11.636;2022-11-11T00:42:39;1.47;;;1.10;;
2766;SDS011;1391;46.742;11.636;2022-11-11T00:45:07;4.90;;;1.37;;
2766;SDS011;1391;46.742;11.636;2022-11-11T00:47:36;1.50;;;0.90;;
2766;SDS011;1391;46.742;11.636;2022-11-11T00:50:22;1.37;;;1.00;;
2766;SDS011;1391;46.742;11.636;2022-11-11T00:53:11;2.57;;;1.00;;
2766;SDS011;1391;46.742;11.636;2022-11-11T00:55:40;1.00;;;0.90;;
2766;SDS011;1391;46.742;11.636;2022-11-11T00:58:07;2.93;;;1.07;;
2766;SDS011;1391;46.742;11.636;2022-11-11T01:00:35;3.20;;;1.00;;
2766;SDS011;1391;46.742;11.636;2022-11-11T01:03:04;1.53;;;1.30;;
2766;SDS011;1391;46.742;11.636;2022-11-11T01:05:31;1.93;;;1.17;;
2766;SDS011;1391;46.742;11.636;2022-11-11T01:07:59;1.43;;;0.83;;
2766;SDS011;1391;46.742;11.636;2022-11-11T01:10:28;2.50;;;1.00;;
2766;SDS011;1391;46.742;11.636;2022-11-11T01:13:06;1.27;;;1.17;;
2766;SDS011;1391;46.742;11.636;2022-11-11T01:15:41;1.17;;;1.07;;
2766;SDS011;1391;46.742;11.636;2022-11-11T01:18:11;1.03;;;0.90;;
2766;SDS011;1391;46.742;11.636;2022-11-11T01:20:42;0.97;;;0.93;;
2766;SDS011;1391;46.742;11.636;2022-11-11T01:23:11;5.73;;;1.57;;
2766;SDS011;1391;46.742;11.636;2022-11-11T01:25:41;2.47;;;1.17;;
2766;SDS011;1391;46.742;11.636;2022-11-11T01:28:10;1.23;;;1.00;;
2766;SDS011;1391;46.742;11.636;2022-11-11T01:30:38;1.60;;;1.30;;
2766;SDS011;1391;46.742;11.636;2022-11-11T01:33:05;1.97;;;1.10;;
2766;SDS011;1391;46.742;11.636;2022-11-11T01:35:37;4.87;;;1.30;;
2766;SDS011;1391;46.742;11.636;2022-11-11T01:38:05;1.30;;;1.00;;
2766;SDS011;1391;46.742;11.636;2022-11-11T01:40:38;2.97;;;1.00;;
2766;SDS011;1391;46.742;11.636;2022-11-11T01:43:16;0.93;;;0.93;;
2766;SDS011;1391;46.742;11.636;2022-11-11T01:45:49;2.60;;;1.10;;
2766;SDS011;1391;46.742;11.636;2022-11-11T01:48:23;2.40;;;1.17;;
2766;SDS011;1391;46.742;11.636;2022-11-11T01:51:15;1.00;;;0.77;;
2766;SDS011;1391;46.742;11.636;2022-11-11T01:53:52;1.87;;;0.93;;
2766;SDS011;1391;46.742;11.636;2022-11-11T01:56:29;1.27;;;0.93;;
2766;SDS011;1391;46.742;11.636;2022-11-11T01:58:59;1.10;;;1.00;;
2766;SDS011;1391;46.742;11.636;2022-11-11T02:01:31;0.73;;;0.73;;
2766;SDS011;1391;46.742;11.636;2022-11-11T02:03:59;1.70;;;1.10;;
2766;SDS011;1391;46.742;11.636;2022-11-11T02:06:44;1.07;;;0.97;;
2766;SDS011;1391;46.742;11.636;2022-11-11T02:09:13;1.00;;;1.00;;
2766;SDS011;1391;46.742;11.636;2022-11-11T02:11:44;2.43;;;1.20;;
2766;SDS011;1391;46.742;11.636;2022-11-11T02:14:29;1.00;;;0.90;;
2766;SDS011;1391;46.742;11.636;2022-11-11T02:17:07;2.60;;;1.07;;
2766;SDS011;1391;46.742;11.636;2022-11-11T02:19:41;1.20;;;0.90;;
2766;SDS011;1391;46.742;11.636;2022-11-11T02:22:17;1.83;;;1.30;;
2766;SDS011;1391;46.742;11.636;2022-11-11T02:24:53;1.77;;;1.37;;
2766;SDS011;1391;46.742;11.636;2022-11-11T02:27:22;3.00;;;1.23;;
2766;SDS011;1391;46.742;11.636;2022-11-11T02:29:54;1.40;;;1.20;;
2766;SDS011;1391;46.742;11.636;2022-11-11T02:32:24;1.60;;;1.50;;
2766;SDS011;1391;46.742;11.636;2022-11-11T02:34:51;1.97;;;1.50;;
2766;SDS011;1391;46.742;11.636;2022-11-11T02:37:19;4.93;;;1.30;;
2766;SDS011;1391;46.742;11.636;2022-11-11T02:39:49;1.57;;;1.20;;
2766;SDS011;1391;46.742;11.636;2022-11-11T02:42:23;1.60;;;1.50;;
2766;SDS011;1391;46.742;11.636;2022-11-11T02:44:54;1.73;;;1.30;;
2766;SDS011;1391;46.742;11.636;2022-11-11T02:47:23;1.30;;;1.20;;
2766;SDS011;1391;46.742;11.636;2022-11-11T02:49:54;4.03;;;1.50;;
2766;SDS011;1391;46.742;11.636;2022-11-11T02:52:21;1.30;;;1.20;;
2766;SDS011;1391;46.742;11.636;2022-11-11T02:54:50;1.30;;;1.20;;
2766;SDS011;1391;46.742;11.636;2022-11-11T02:57:18;1.40;;;1.30;;
2766;SDS011;1391;46.742;11.636;2022-11-11T02:59:46;2.13;;;1.37;;
2766;SDS011;1391;46.742;11.636;2022-11-11T03:02:15;1.27;;;0.90;;
2766;SDS011;1391;46.742;11.636;2022-11-11T03:04:43;3.70;;;1.40;;
2766;SDS011;1391;46.742;11.636;2022-11-11T03:07:10;1.93;;;1.20;;
2766;SDS011;1391;46.742;11.636;2022-11-11T03:09:39;3.13;;;1.53;;
2766;SDS011;1391;46.742;11.636;2022-11-11T03:12:06;1.33;;;1.23;;
2766;SDS011;1391;46.742;11.636;2022-11-11T03:14:35;3.37;;;1.40;;
2766;SDS011;1391;46.742;11.636;2022-11-11T03:17:02;1.80;;;1.50;;
2766;SDS011;1391;46.742;11.636;2022-11-11T03:19:47;4.07;;;2.10;;
2766;SDS011;1391;46.742;11.636;2022-11-11T03:22:15;4.40;;;1.30;;
2766;SDS011;1391;46.742;11.636;2022-11-11T03:24:41;1.63;;;1.37;;
2766;SDS011;1391;46.742;11.636;2022-11-11T03:27:26;4.07;;;1.60;;
2766;SDS011;1391;46.742;11.636;2022-11-11T03:29:54;1.90;;;1.20;;
2766;SDS011;1391;46.742;11.636;2022-11-11T03:32:22;2.87;;;1.20;;
2766;SDS011;1391;46.742;11.636;2022-11-11T03:34:49;3.40;;;1.30;;
2766;SDS011;1391;46.742;11.636;2022-11-11T03:37:17;1.27;;;1.00;;
2766;SDS011;1391;46.742;11.636;2022-11-11T03:40:02;1.00;;;1.00;;
2766;SDS011;1391;46.742;11.636;2022-11-11T03:42:31;2.47;;;1.17;;
2766;SDS011;1391;46.742;11.636;2022-11-11T03:45:04;1.53;;;1.20;;
2766;SDS011;1391;46.742;11.636;2022-11-11T03:47:33;3.00;;;1.10;;
2766;SDS011;1391;46.742;11.636;2022-11-11T03:50:03;2.30;;;1.10;;
2766;SDS011;1391;46.742;11.636;2022-11-11T03:52:32;1.50;;;1.10;;
2766;SDS011;1391;46.742;11.636;2022-11-11T03:55:00;1.33;;;1.20;;
2766;SDS011;1391;46.742;11.636;2022-11-11T03:57:27;0.90;;;0.90;;
2766;SDS011;1391;46.742;11.636;2022-11-11T03:59:59;0.93;;;0.90;;
2766;SDS011;1391;46.742;11.636;2022-11-11T04:02:29;2.03;;;1.10;;
2766;SDS011;1391;46.742;11.636;2022-11-11T04:05:14;1.20;;;1.10;;
2766;SDS011;1391;46.742;11.636;2022-11-11T04:07:59;1.30;;;1.17;;
2766;SDS011;1391;46.742;11.636;2022-11-11T04:10:44;0.90;;;0.90;;
2766;SDS011;1391;46.742;11.636;2022-11-11T04:13:11;1.87;;;1.40;;
2766;SDS011;1391;46.742;11.636;2022-11-11T04:15:56;4.20;;;1.57;;
2766;SDS011;1391;46.742;11.636;2022-11-11T04:18:34;2.50;;;1.70;;
2766;SDS011;1391;46.742;11.636;2022-11-11T04:21:20;3.37;;;1.80;;
2766;SDS011;1391;46.742;11.636;2022-11-11T04:24:05;2.53;;;1.50;;
2766;SDS011;1391;46.742;11.636;2022-11-11T04:26:47;3.87;;;1.60;;
2766;SDS011;1391;46.742;11.636;2022-11-11T04:29:14;1.83;;;1.33;;
2766;SDS011;1391;46.742;11.636;2022-11-11T04:31:53;1.67;;;1.30;;
2766;SDS011;1391;46.742;11.636;2022-11-11T04:34:43;4.97;;;1.30;;
2766;SDS011;1391;46.742;11.636;2022-11-11T04:37:15;1.17;;;1.10;;
2766;SDS011;1391;46.742;11.636;2022-11-11T04:39:44;1.30;;;1.20;;
2766;SDS011;1391;46.742;11.636;2022-11-11T04:42:29;1.97;;;1.13;;
2766;SDS011;1391;46.742;11.636;2022-11-11T04:44:59;1.83;;;1.20;;
2766;SDS011;1391;46.742;11.636;2022-11-11T04:47:57;1.10;;;1.00;;
2766;SDS011;1391;46.742;11.636;2022-11-11T04:50:28;2.37;;;0.93;;
2766;SDS011;1391;46.742;11.636;2022-11-11T04:52:57;1.40;;;0.90;;
2766;SDS011;1391;46.742;11.636;2022-11-11T04:55:27;1.17;;;1.07;;
2766;SDS011;1391;46.742;11.636;2022-11-11T04:58:12;1.97;;;1.37;;
2766;SDS011;1391;46.742;11.636;2022-11-11T05:00:40;2.43;;;1.10;;
2766;SDS011;1391;46.742;11.636;2022-11-11T05:03:09;1.27;;;0.93;;
2766;SDS011;1391;46.742;11.636;2022-11-11T05:05:47;2.27;;;1.40;;
2766;SDS011;1391;46.742;11.636;2022-11-11T05:08:35;2.70;;;1.00;;
2766;SDS011;1391;46.742;11.636;2022-11-11T05:11:23;1.00;;;1.00;;
2766;SDS011;1391;46.742;11.636;2022-11-11T05:13:52;1.17;;;1.07;;
2766;SDS011;1391;46.742;11.636;2022-11-11T05:16:41;3.87;;;1.50;;
2766;SDS011;1391;46.742;11.636;2022-11-11T05:19:27;4.10;;;2.70;;
2766;SDS011;1391;46.742;11.636;2022-11-11T05:22:15;3.20;;;1.90;;
2766;SDS011;1391;46.742;11.636;2022-11-11T05:24:47;3.87;;;1.73;;
2766;SDS011;1391;46.742;11.636;2022-11-11T05:27:32;1.83;;;1.50;;
2766;SDS011;1391;46.742;11.636;2022-11-11T05:29:59;2.03;;;1.17;;
2766;SDS011;1391;46.742;11.636;2022-11-11T05:32:28;5.70;;;1.60;;
2766;SDS011;1391;46.742;11.636;2022-11-11T05:34:55;4.47;;;1.90;;
2766;SDS011;1391;46.742;11.636;2022-11-11T05:37:23;4.67;;;3.00;;
2766;SDS011;1391;46.742;11.636;2022-11-11T05:39:51;1.60;;;1.50;;
2766;SDS011;1391;46.742;11.636;2022-11-11T05:42:18;3.80;;;1.97;;
2766;SDS011;1391;46.742;11.636;2022-11-11T05:44:46;2.37;;;1.83;;
2766;SDS011;1391;46.742;11.636;2022-11-11T05:47:13;2.20;;;2.00;;
2766;SDS011;1391;46.742;11.636;2022-11-11T05:49:42;4.17;;;3.33;;
2766;SDS011;1391;46.742;11.636;2022-11-11T05:52:12;15.47;;;9.23;;
2766;SDS011;1391;46.742;11.636;2022-11-11T05:54:43;6.27;;;3.90;;
2766;SDS011;1391;46.742;11.636;2022-11-11T05:57:13;7.57;;;5.23;;
2766;SDS011;1391;46.742;11.636;2022-11-11T05:59:41;9.40;;;6.00;;
2766;SDS011;1391;46.742;11.636;2022-11-11T06:02:09;11.17;;;6.87;;
2766;SDS011;1391;46.742;11.636;2022-11-11T06:04:37;9.30;;;6.47;;
2766;SDS011;1391;46.742;11.636;2022-11-11T06:07:04;14.37;;;9.50;;
2766;SDS011;1391;46.742;11.636;2022-11-11T06:09:32;14.00;;;7.57;;
2766;SDS011;1391;46.742;11.636;2022-11-11T06:12:01;7.47;;;5.20;;
2766;SDS011;1391;46.742;11.636;2022-11-11T06:14:29;3.53;;;2.87;;
2766;SDS011;1391;46.742;11.636;2022-11-11T06:16:56;2.33;;;2.07;;
2766;SDS011;1391;46.742;11.636;2022-11-11T06:19:23;2.63;;;2.40;;
2766;SDS011;1391;46.742;11.636;2022-11-11T06:21:51;1.77;;;1.67;;
2766;SDS011;1391;46.742;11.636;2022-11-11T06:24:26;2.40;;;2.00;;
2766;SDS011;1391;46.742;11.636;2022-11-11T06:26:53;2.90;;;1.87;;
2766;SDS011;1391;46.742;11.636;2022-11-11T06:29:21;3.10;;;2.37;;
2766;SDS011;1391;46.742;11.636;2022-11-11T06:31:49;3.17;;;2.20;;
2766;SDS011;1391;46.742;11.636;2022-11-11T06:34:16;2.70;;;2.43;;
2766;SDS011;1391;46.742;11.636;2022-11-11T06:36:43;2.40;;;2.20;;
2766;SDS011;1391;46.742;11.636;2022-11-11T06:39:11;2.90;;;2.10;;
2766;SDS011;1391;46.742;11.636;2022-11-11T06:41:38;2.30;;;2.10;;
2766;SDS011;1391;46.742;11.636;2022-11-11T06:44:06;2.63;;;1.80;;
2766;SDS011;1391;46.742;11.636;2022-11-11T06:46:34;2.53;;;1.83;;
2766;SDS011;1391;46.742;11.636;2022-11-11T06:49:02;3.37;;;2.10;;
2766;SDS011;1391;46.742;11.636;2022-11-11T06:51:30;4.80;;;2.33;;
2766;SDS011;1391;46.742;11.636;2022-11-11T06:53:58;4.30;;;1.90;;
2766;SDS011;1391;46.742;11.636;2022-11-11T06:56:26;3.43;;;2.10;;
2766;SDS011;1391;46.742;11.636;2022-11-11T06:58:53;3.03;;;2.17;;
2766;SDS011;1391;46.742;11.636;2022-11-11T07:01:21;2.27;;;1.87;;
2766;SDS011;1391;46.742;11.636;2022-11-11T07:03:49;1.83;;;1.70;;
2766;SDS011;1391;46.742;11.636;2022-11-11T07:06:16;1.60;;;1.50;;
2766;SDS011;1391;46.742;11.636;2022-11-11T07:08:45;2.00;;;1.80;;
2766;SDS011;1391;46.742;11.636;2022-11-11T07:11:12;1.97;;;1.57;;
2766;SDS011;1391;46.742;11.636;2022-11-11T07:13:40;1.93;;;1.73;;
2766;SDS011;1391;46.742;11.636;2022-11-11T07:16:07;2.43;;;1.73;;
2766;SDS011;1391;46.742;11.636;2022-11-11T07:18:36;2.73;;;1.60;;
2766;SDS011;1391;46.742;11.636;2022-11-11T07:21:05;1.87;;;1.77;;
2766;SDS011;1391;46.742;11.636;2022-11-11T07:23:32;1.70;;;1.53;;
2766;SDS011;1391;46.742;11.636;2022-11-11T07:25:59;2.80;;;1.70;;
2766;SDS011;1391;46.742;11.636;2022-11-11T07:28:27;4.27;;;1.70;;
2766;SDS011;1391;46.742;11.636;2022-11-11T07:30:54;1.77;;;1.50;;
2766;SDS011;1391;46.742;11.636;2022-11-11T07:33:21;3.57;;;1.70;;
2766;SDS011;1391;46.742;11.636;2022-11-11T07:35:49;5.83;;;3.33;;
2766;SDS011;1391;46.742;11.636;2022-11-11T07:38:18;7.53;;;4.23;;
2766;SDS011;1391;46.742;11.636;2022-11-11T07:40:45;12.90;;;4.60;;
2766;SDS011;1391;46.742;11.636;2022-11-11T07:43:12;14.37;;;5.13;;
2766;SDS011;1391;46.742;11.636;2022-11-11T07:45:40;11.77;;;5.97;;
2766;SDS011;1391;46.742;11.636;2022-11-11T07:48:08;13.97;;;5.90;;
2766;SDS011;1391;46.742;11.636;2022-11-11T07:50:35;25.50;;;8.83;;
2766;SDS011;1391;46.742;11.636;2022-11-11T07:53:02;15.43;;;4.80;;
2766;SDS011;1391;46.742;11.636;2022-11-11T07:55:31;13.30;;;5.50;;
2766;SDS011;1391;46.742;11.636;2022-11-11T07:57:59;11.57;;;4.87;;
2766;SDS011;1391;46.742;11.636;2022-11-11T08:00:28;10.87;;;4.87;;
2766;SDS011;1391;46.742;11.636;2022-11-11T08:02:57;11.57;;;5.50;;
2766;SDS011;1391;46.742;11.636;2022-11-11T08:05:24;10.63;;;5.43;;
2766;SDS011;1391;46.742;11.636;2022-11-11T08:07:52;8.77;;;5.30;;
2766;SDS011;1391;46.742;11.636;2022-11-11T08:10:19;11.97;;;4.87;;
2766;SDS011;1391;46.742;11.636;2022-11-11T08:12:53;3.70;;;2.83;;
2766;SDS011;1391;46.742;11.636;2022-11-11T08:15:44;5.13;;;2.07;;
2766;SDS011;1391;46.742;11.636;2022-11-11T08:18:11;2.83;;;1.97;;
2766;SDS011;1391;46.742;11.636;2022-11-11T08:20:39;25.73;;;4.70;;
2766;SDS011;1391;46.742;11.636;2022-11-11T08:23:06;8.50;;;2.33;;
2766;SDS011;1391;46.742;11.636;2022-11-11T08:25:35;6.73;;;2.80;;
2766;SDS011;1391;46.742;11.636;2022-11-11T08:28:07;3.30;;;2.10;;
2766;SDS011;1391;46.742;11.636;2022-11-11T08:30:34;12.73;;;4.33;;
2766;SDS011;1391;46.742;11.636;2022-11-11T08:33:02;11.37;;;5.33;;
2766;SDS011;1391;46.742;11.636;2022-11-11T08:35:31;8.93;;;4.40;;
2766;SDS011;1391;46.742;11.636;2022-11-11T08:37:59;14.40;;;4.70;;
2766;SDS011;1391;46.742;11.636;2022-11-11T08:40:27;6.13;;;3.50;;
2766;SDS011;1391;46.742;11.636;2022-11-11T08:42:55;4.57;;;2.80;;
2766;SDS011;1391;46.742;11.636;2022-11-11T08:45:25;6.33;;;2.37;;
2766;SDS011;1391;46.742;11.636;2022-11-11T08:47:52;5.17;;;2.10;;
2766;SDS011;1391;46.742;11.636;2022-11-11T08:50:19;2.50;;;2.30;;
2766;SDS011;1391;46.742;11.636;2022-11-11T08:52:47;5.93;;;2.47;;
2766;SDS011;1391;46.742;11.636;2022-11-11T08:55:16;4.03;;;2.47;;
2766;SDS011;1391;46.742;11.636;2022-11-11T08:57:44;10.00;;;2.87;;
2766;SDS011;1391;46.742;11.636;2022-11-11T09:00:12;4.83;;;2.60;;
2766;SDS011;1391;46.742;11.636;2022-11-11T09:02:43;3.67;;;2.30;;
2766;SDS011;1391;46.742;11.636;2022-11-11T09:05:10;3.70;;;2.33;;
2766;SDS011;1391;46.742;11.636;2022-11-11T09:07:37;3.83;;;2.40;;
2766;SDS011;1391;46.742;11.636;2022-11-11T09:10:05;3.17;;;2.20;;
2766;SDS011;1391;46.742;11.636;2022-11-11T09:12:34;6.97;;;1.80;;
2766;SDS011;1391;46.742;11.636;2022-11-11T09:15:01;2.40;;;1.30;;
2766;SDS011;1391;46.742;11.636;2022-11-11T09:17:30;3.70;;;1.60;;
2766;SDS011;1391;46.742;11.636;2022-11-11T09:19:59;4.13;;;1.60;;
2766;SDS011;1391;46.742;11.636;2022-11-11T09:22:29;1.70;;;1.40;;
2766;SDS011;1391;46.742;11.636;2022-11-11T09:24:56;4.20;;;1.90;;
2766;SDS011;1391;46.742;11.636;2022-11-11T09:27:24;5.73;;;3.60;;
2766;SDS011;1391;46.742;11.636;2022-11-11T09:29:51;2.10;;;1.60;;
2766;SDS011;1391;46.742;11.636;2022-11-11T09:32:18;1.83;;;1.50;;
2766;SDS011;1391;46.742;11.636;2022-11-11T09:34:46;3.63;;;1.50;;
2766;SDS011;1391;46.742;11.636;2022-11-11T09:37:15;4.10;;;1.97;;
2766;SDS011;1391;46.742;11.636;2022-11-11T09:39:43;3.53;;;1.67;;
2766;SDS011;1391;46.742;11.636;2022-11-11T09:42:13;2.50;;;1.90;;
2766;SDS011;1391;46.742;11.636;2022-11-11T09:45:00;3.87;;;1.80;;
2766;SDS011;1391;46.742;11.636;2022-11-11T09:47:46;4.53;;;1.60;;
2766;SDS011;1391;46.742;11.636;2022-11-11T09:50:22;4.33;;;1.80;;
2766;SDS011;1391;46.742;11.636;2022-11-11T09:52:55;2.73;;;1.90;;
2766;SDS011;1391;46.742;11.636;2022-11-11T09:55:29;4.47;;;1.60;;
2766;SDS011;1391;46.742;11.636;2022-11-11T09:58:03;2.97;;;1.70;;
2766;SDS011;1391;46.742;11.636;2022-11-11T10:00:37;2.00;;;1.30;;
2766;SDS011;1391;46.742;11.636;2022-11-11T10:03:10;4.43;;;1.83;;
2766;SDS011;1391;46.742;11.636;2022-11-11T10:05:43;5.97;;;1.80;;
2766;SDS011;1391;46.742;11.636;2022-11-11T10:08:19;1.50;;;1.40;;
2766;SDS011;1391;46.742;11.636;2022-11-11T10:10:51;4.90;;;1.30;;
2766;SDS011;1391;46.742;11.636;2022-11-11T10:13:22;2.60;;;1.70;;
2766;SDS011;1391;46.742;11.636;2022-11-11T10:15:56;1.10;;;1.03;;
2766;SDS011;1391;46.742;11.636;2022-11-11T10:18:39;2.13;;;1.20;;
2766;SDS011;1391;46.742;11.636;2022-11-11T10:21:18;2.47;;;1.47;;
2766;SDS011;1391;46.742;11.636;2022-11-11T10:23:54;2.23;;;1.40;;
2766;SDS011;1391;46.742;11.636;2022-11-11T10:26:28;1.93;;;1.20;;
2766;SDS011;1391;46.742;11.636;2022-11-11T10:29:03;1.43;;;0.93;;
2766;SDS011;1391;46.742;11.636;2022-11-11T10:31:36;1.13;;;0.97;;
2766;SDS011;1391;46.742;11.636;2022-11-11T10:34:08;1.73;;;1.00;;
2766;SDS011;1391;46.742;11.636;2022-11-11T10:36:42;4.70;;;2.20;;
2766;SDS011;1391;46.742;11.636;2022-11-11T10:39:14;1.20;;;1.10;;
2766;SDS011;1391;46.742;11.636;2022-11-11T10:41:48;1.10;;;1.00;;
2766;SDS011;1391;46.742;11.636;2022-11-11T10:44:18;1.20;;;1.10;;
2766;SDS011;1391;46.742;11.636;2022-11-11T10:46:50;1.97;;;1.30;;
2766;SDS011;1391;46.742;11.636;2022-11-11T10:49:28;1.30;;;1.20;;
2766;SDS011;1391;46.742;11.636;2022-11-11T10:52:00;2.67;;;1.00;;
2766;SDS011;1391;46.742;11.636;2022-11-11T10:54:40;1.03;;;0.93;;
2766;SDS011;1391;46.742;11.636;2022-11-11T10:57:11;3.43;;;1.20;;
2766;SDS011;1391;46.742;11.636;2022-11-11T10:59:46;3.23;;;1.00;;
2766;SDS011;1391;46.742;11.636;2022-11-11T11:02:18;2.13;;;1.40;;
2766;SDS011;1391;46.742;11.636;2022-11-11T11:04:49;3.77;;;2.63;;
2766;SDS011;1391;46.742;11.636;2022-11-11T11:07:23;6.47;;;1.87;;
2766;SDS011;1391;46.742;11.636;2022-11-11T11:09:55;3.20;;;1.50;;
2766;SDS011;1391;46.742;11.636;2022-11-11T11:12:29;2.10;;;1.53;;
2766;SDS011;1391;46.742;11.636;2022-11-11T11:15:07;1.30;;;1.20;;
2766;SDS011;1391;46.742;11.636;2022-11-11T11:17:41;5.30;;;1.00;;
2766;SDS011;1391;46.742;11.636;2022-11-11T11:20:19;2.20;;;1.63;;
2766;SDS011;1391;46.742;11.636;2022-11-11T11:22:49;1.40;;;1.30;;
2766;SDS011;1391;46.742;11.636;2022-11-11T11:25:21;1.33;;;1.20;;
2766;SDS011;1391;46.742;11.636;2022-11-11T11:27:50;2.40;;;1.10;;
2766;SDS011;1391;46.742;11.636;2022-11-11T11:30:20;1.10;;;0.90;;
2766;SDS011;1391;46.742;11.636;2022-11-11T11:32:59;1.10;;;1.00;;
2766;SDS011;1391;46.742;11.636;2022-11-11T11:35:30;1.17;;;0.80;;
2766;SDS011;1391;46.742;11.636;2022-11-11T11:38:01;2.10;;;1.00;;
2766;SDS011;1391;46.742;11.636;2022-11-11T11:40:44;1.60;;;0.80;;
2766;SDS011;1391;46.742;11.636;2022-11-11T11:43:30;0.90;;;0.70;;
2766;SDS011;1391;46.742;11.636;2022-11-11T11:46:00;0.70;;;0.70;;
2766;SDS011;1391;46.742;11.636;2022-11-11T11:48:43;1.70;;;0.90;;
2766;SDS011;1391;46.742;11.636;2022-11-11T11:51:32;0.77;;;0.77;;
2766;SDS011;1391;46.742;11.636;2022-11-11T11:54:13;1.10;;;1.00;;
2766;SDS011;1391;46.742;11.636;2022-11-11T11:56:53;1.13;;;0.90;;
2766;SDS011;1391;46.742;11.636;2022-11-11T11:59:26;2.90;;;1.90;;
2766;SDS011;1391;46.742;11.636;2022-11-11T12:02:02;2.57;;;1.30;;
2766;SDS011;1391;46.742;11.636;2022-11-11T12:04:59;2.43;;;1.73;;
2766;SDS011;1391;46.742;11.636;2022-11-11T12:07:45;5.47;;;2.40;;
2766;SDS011;1391;46.742;11.636;2022-11-11T12:10:30;7.90;;;2.50;;
2766;SDS011;1391;46.742;11.636;2022-11-11T12:13:16;4.63;;;3.10;;
2766;SDS011;1391;46.742;11.636;2022-11-11T12:15:59;3.03;;;1.40;;
2766;SDS011;1391;46.742;11.636;2022-11-11T12:18:46;3.10;;;1.47;;
2766;SDS011;1391;46.742;11.636;2022-11-11T12:21:31;1.87;;;1.67;;
2766;SDS011;1391;46.742;11.636;2022-11-11T12:24:07;3.00;;;2.10;;
2766;SDS011;1391;46.742;11.636;2022-11-11T12:26:48;2.27;;;2.00;;
2766;SDS011;1391;46.742;11.636;2022-11-11T12:29:32;2.43;;;1.50;;
2766;SDS011;1391;46.742;11.636;2022-11-11T12:32:18;2.00;;;1.77;;
2766;SDS011;1391;46.742;11.636;2022-11-11T12:35:05;2.80;;;2.40;;
2766;SDS011;1391;46.742;11.636;2022-11-11T12:37:46;5.87;;;4.27;;
2766;SDS011;1391;46.742;11.636;2022-11-11T12:40:26;9.70;;;5.90;;
2766;SDS011;1391;46.742;11.636;2022-11-11T12:43:03;15.13;;;9.00;;
2766;SDS011;1391;46.742;11.636;2022-11-11T12:45:48;8.83;;;4.87;;
2766;SDS011;1391;46.742;11.636;2022-11-11T12:48:32;4.03;;;3.07;;
2766;SDS011;1391;46.742;11.636;2022-11-11T12:51:21;9.03;;;7.47;;
2766;SDS011;1391;46.742;11.636;2022-11-11T12:54:04;2.90;;;2.60;;
2766;SDS011;1391;46.742;11.636;2022-11-11T12:56:46;3.13;;;1.40;;
2766;SDS011;1391;46.742;11.636;2022-11-11T12:59:23;1.10;;;1.10;;
2766;SDS011;1391;46.742;11.636;2022-11-11T13:02:11;2.17;;;1.10;;
2766;SDS011;1391;46.742;11.636;2022-11-11T13:04:58;1.30;;;1.20;;
2766;SDS011;1391;46.742;11.636;2022-11-11T13:07:40;1.33;;;1.23;;
2766;SDS011;1391;46.742;11.636;2022-11-11T13:10:47;5.60;;;2.57;;
2766;SDS011;1391;46.742;11.636;2022-11-11T13:13:34;2.27;;;1.50;;
2766;SDS011;1391;46.742;11.636;2022-11-11T13:16:17;1.43;;;0.87;;
2766;SDS011;1391;46.742;11.636;2022-11-11T13:18:52;1.90;;;0.70;;
2766;SDS011;1391;46.742;11.636;2022-11-11T13:21:25;0.90;;;0.90;;
2766;SDS011;1391;46.742;11.636;2022-11-11T13:24:00;2.80;;;1.10;;
2766;SDS011;1391;46.742;11.636;2022-11-11T13:26:30;0.83;;;0.80;;
2766;SDS011;1391;46.742;11.636;2022-11-11T13:29:08;0.77;;;0.70;;
2766;SDS011;1391;46.742;11.636;2022-11-11T13:32:10;0.77;;;0.77;;
2766;SDS011;1391;46.742;11.636;2022-11-11T13:34:42;1.13;;;1.07;;
2766;SDS011;1391;46.742;11.636;2022-11-11T13:37:17;1.73;;;1.10;;
2766;SDS011;1391;46.742;11.636;2022-11-11T13:39:49;1.10;;;1.00;;
2766;SDS011;1391;46.742;11.636;2022-11-11T13:42:20;1.13;;;1.00;;
2766;SDS011;1391;46.742;11.636;2022-11-11T13:44:51;0.90;;;0.90;;
2766;SDS011;1391;46.742;11.636;2022-11-11T13:47:22;1.10;;;1.00;;
2766;SDS011;1391;46.742;11.636;2022-11-11T13:49:59;1.70;;;1.30;;
2766;SDS011;1391;46.742;11.636;2022-11-11T13:52:32;1.93;;;1.33;;
2766;SDS011;1391;46.742;11.636;2022-11-11T13:55:02;1.37;;;1.00;;
2766;SDS011;1391;46.742;11.636;2022-11-11T13:57:41;1.60;;;0.90;;
2766;SDS011;1391;46.742;11.636;2022-11-11T14:00:23;8.50;;;4.00;;
2766;SDS011;1391;46.742;11.636;2022-11-11T14:12:37;3.37;;;2.43;;
2766;SDS011;1391;46.742;11.636;2022-11-11T14:18:00;1.87;;;1.13;;
2766;SDS011;1391;46.742;11.636;2022-11-11T14:20:33;15.37;;;10.37;;
2766;SDS011;1391;46.742;11.636;2022-11-11T14:23:25;1.93;;;1.73;;
2766;SDS011;1391;46.742;11.636;2022-11-11T14:26:20;3.70;;;2.00;;
2766;SDS011;1391;46.742;11.636;2022-11-11T14:28:54;2.60;;;1.40;;
2766;SDS011;1391;46.742;11.636;2022-11-11T14:34:41;5.57;;;2.53;;
2766;SDS011;1391;46.742;11.636;2022-11-11T14:37:54;5.43;;;3.13;;
2766;SDS011;1391;46.742;11.636;2022-11-11T14:40:41;4.43;;;2.67;;
2766;SDS011;1391;46.742;11.636;2022-11-11T14:46:08;5.43;;;2.40;;
2766;SDS011;1391;46.742;11.636;2022-11-11T14:48:53;4.30;;;2.60;;
2766;SDS011;1391;46.742;11.636;2022-11-11T14:51:36;3.53;;;2.27;;
2766;SDS011;1391;46.742;11.636;2022-11-11T14:54:24;4.53;;;2.30;;
2766;SDS011;1391;46.742;11.636;2022-11-11T14:57:05;3.33;;;2.50;;
2766;SDS011;1391;46.742;11.636;2022-11-11T14:59:41;8.80;;;3.17;;
2766;SDS011;1391;46.742;11.636;2022-11-11T15:02:12;4.17;;;3.00;;
2766;SDS011;1391;46.742;11.636;2022-11-11T15:04:59;2.07;;;1.80;;
2766;SDS011;1391;46.742;11.636;2022-11-11T15:07:35;6.30;;;2.83;;
2766;SDS011;1391;46.742;11.636;2022-11-11T15:10:31;3.10;;;2.70;;
2766;SDS011;1391;46.742;11.636;2022-11-11T15:13:18;2.80;;;2.40;;
2766;SDS011;1391;46.742;11.636;2022-11-11T15:16:24;2.87;;;2.40;;
2766;SDS011;1391;46.742;11.636;2022-11-11T15:19:15;4.93;;;1.80;;
2766;SDS011;1391;46.742;11.636;2022-11-11T15:21:59;2.50;;;2.30;;
2766;SDS011;1391;46.742;11.636;2022-11-11T15:24:38;3.30;;;1.90;;
2766;SDS011;1391;46.742;11.636;2022-11-11T15:27:15;1.73;;;1.30;;
2766;SDS011;1391;46.742;11.636;2022-11-11T15:29:56;2.73;;;1.33;;
2766;SDS011;1391;46.742;11.636;2022-11-11T15:32:35;3.47;;;1.20;;
2766;SDS011;1391;46.742;11.636;2022-11-11T15:35:28;4.93;;;1.90;;
2766;SDS011;1391;46.742;11.636;2022-11-11T15:38:03;3.77;;;2.87;;
2766;SDS011;1391;46.742;11.636;2022-11-11T15:40:32;6.67;;;3.10;;
2766;SDS011;1391;46.742;11.636;2022-11-11T15:43:12;7.83;;;2.73;;
2766;SDS011;1391;46.742;11.636;2022-11-11T15:45:45;2.30;;;1.63;;
2766;SDS011;1391;46.742;11.636;2022-11-11T15:48:18;3.00;;;1.30;;
2766;SDS011;1391;46.742;11.636;2022-11-11T15:50:49;1.80;;;1.30;;
2766;SDS011;1391;46.742;11.636;2022-11-11T15:53:20;3.90;;;1.20;;
2766;SDS011;1391;46.742;11.636;2022-11-11T15:55:51;2.00;;;1.53;;
2766;SDS011;1391;46.742;11.636;2022-11-11T15:58:24;1.97;;;1.50;;
2766;SDS011;1391;46.742;11.636;2022-11-11T16:00:55;1.93;;;1.13;;